Time;durP1;ratioP1;P1;durP2;ratioP2;P2;SDS_P1;SDS_P2;PMS_P1;PMS_P2;Temp;Humidity;BMP_temperature;BMP_pressure;BME280_temperature;BME280_humidity;BME280_pressure;Samples;Min_cycle;Max_cycle;Signal;HPM_P1;HPM_P2
2023/04/08 00:00:30;;;;;;;16.13;8.25;;;;;;;5.71;72.92;94701.47;5103175;28;20206;-75
2023/04/08 00:02:57;;;;;;;14.05;8.15;;;;;;;5.51;73.60;94706.34;5099521;28;20323;-75
2023/04/08 00:05:25;;;;;;;16.23;7.57;;;;;;;5.35;73.65;94708.47;5096678;28;20298;-74
2023/04/08 00:07:52;;;;;;;13.02;7.47;;;;;;;5.22;74.28;94709.22;5099983;28;20202;-75
2023/04/08 00:10:19;;;;;;;17.35;8.77;;;;;;;5.13;74.03;94717.16;5076331;28;20597;-75
2023/04/08 00:12:45;;;;;;;15.85;9.07;;;;;;;5.16;75.01;94710.41;5100132;28;20202;-75
2023/04/08 00:15:12;;;;;;;22.42;11.95;;;;;;;5.29;74.48;94715.03;5095944;28;20245;-75
2023/04/08 00:17:39;;;;;;;14.25;8.10;;;;;;;5.10;73.65;94715.03;5099439;28;20661;-75
2023/04/08 00:20:07;;;;;;;17.67;8.98;;;;;;;5.29;73.39;94706.97;5103303;28;20194;-75
2023/04/08 00:22:35;;;;;;;19.70;11.57;;;;;;;5.44;73.03;94706.75;5100188;28;20237;-75
2023/04/08 00:25:05;;;;;;;17.60;9.18;;;;;;;5.51;73.03;94707.16;5096052;28;20193;-74
2023/04/08 00:27:32;;;;;;;16.58;9.07;;;;;;;5.54;72.99;94701.19;5097577;27;20217;-75
2023/04/08 00:29:58;;;;;;;20.00;10.07;;;;;;;5.58;72.76;94707.59;5105387;28;20683;-74
2023/04/08 00:32:25;;;;;;;22.23;9.82;;;;;;;5.58;73.11;94704.09;5096920;28;20214;-74
2023/04/08 00:34:52;;;;;;;18.98;8.88;;;;;;;5.62;74.61;94703.22;5102853;28;20723;-75
2023/04/08 00:37:20;;;;;;;19.30;10.75;;;;;;;5.60;74.71;94710.75;5102780;28;20202;-75
2023/04/08 00:39:48;;;;;;;20.48;11.00;;;;;;;5.56;74.32;94706.28;5095722;28;20229;-74
2023/04/08 00:42:15;;;;;;;21.98;11.48;;;;;;;5.53;73.69;94704.19;5095251;28;20226;-75
2023/04/08 00:44:41;;;;;;;24.27;12.18;;;;;;;5.58;74.13;94712.97;5102385;28;20887;-75
2023/04/08 00:47:12;;;;;;;23.15;11.65;;;;;;;5.58;74.44;94712.97;5102331;28;20254;-75
2023/04/08 00:49:39;;;;;;;22.90;12.35;;;;;;;5.63;74.04;94720.94;5096334;28;20205;-74
2023/04/08 00:52:06;;;;;;;28.08;13.98;;;;;;;5.50;74.65;94710.94;5095768;28;20823;-74
2023/04/08 00:54:33;;;;;;;18.92;10.35;;;;;;;5.53;74.13;94713.03;5100981;28;20271;-76
2023/04/08 00:57:01;;;;;;;18.95;10.80;;;;;;;5.46;74.35;94709.16;5074400;28;20671;-75
2023/04/08 00:59:29;;;;;;;23.17;11.98;;;;;;;5.33;74.28;94718.72;5097087;28;20721;-74
2023/04/08 01:02:05;;;;;;;16.30;9.00;;;;;;;5.38;74.01;94715.97;5091173;28;20202;-74
2023/04/08 01:04:40;;;;;;;17.67;8.90;;;;;;;5.11;74.92;94723.88;5088046;28;20305;-74
2023/04/08 01:07:13;;;;;;;7.13;4.82;;;;;;;5.05;74.82;94723.19;5086593;27;20206;-76
2023/04/08 01:09:45;;;;;;;15.93;7.80;;;;;;;4.82;75.26;94724.81;5092088;28;20593;-74
2023/04/08 01:12:21;;;;;;;11.77;6.57;;;;;;;4.54;76.21;94715.78;5094379;27;20243;-75
2023/04/08 01:14:49;;;;;;;11.23;6.40;;;;;;;4.40;76.00;94725.63;5094915;28;20242;-74
2023/04/08 01:17:20;;;;;;;26.77;6.05;;;;;;;4.46;75.40;94718.31;5100523;28;20346;-73
2023/04/08 01:19:48;;;;;;;8.82;4.97;;;;;;;4.49;75.11;94723.13;5102060;28;20264;-75
2023/04/08 01:22:28;;;;;;;13.27;6.88;;;;;;;4.50;74.97;94716.66;5098720;28;20645;-75
2023/04/08 01:25:02;;;;;;;9.93;6.40;;;;;;;4.58;74.92;94726.75;5082128;28;20205;-74
2023/04/08 01:27:32;;;;;;;14.38;7.10;;;;;;;4.67;74.53;94729.59;5097237;28;20198;-75
2023/04/08 01:30:00;;;;;;;11.20;5.97;;;;;;;4.66;74.63;94723.41;5105610;28;20270;-74
2023/04/08 01:32:28;;;;;;;13.25;7.80;;;;;;;4.63;74.52;94724.00;5096133;28;20605;-75
2023/04/08 01:34:57;;;;;;;11.80;6.47;;;;;;;4.78;75.07;94712.28;5101928;28;20843;-74
2023/04/08 01:37:25;;;;;;;18.08;8.02;;;;;;;4.74;74.55;94720.09;5102150;28;20251;-73
2023/04/08 01:39:53;;;;;;;9.80;5.68;;;;;;;4.83;74.03;94720.25;5095834;28;20201;-75
2023/04/08 01:42:22;;;;;;;13.68;7.70;;;;;;;4.94;73.71;94719.81;5092628;28;20235;-74
2023/04/08 01:44:51;;;;;;;15.88;7.28;;;;;;;5.04;73.59;94718.09;5084329;28;20226;-74
2023/04/08 01:47:19;;;;;;;15.30;6.85;;;;;;;4.94;74.13;94719.03;5090708;28;20206;-74
2023/04/08 01:49:47;;;;;;;18.42;7.13;;;;;;;5.03;73.82;94721.88;5067472;28;20249;-74
2023/04/08 01:52:16;;;;;;;15.23;6.65;;;;;;;5.09;74.26;94715.31;5085733;28;21034;-74
2023/04/08 01:54:43;;;;;;;13.65;6.97;;;;;;;5.10;74.45;94716.94;5098566;28;20271;-74
2023/04/08 01:57:14;;;;;;;13.48;7.22;;;;;;;5.08;74.04;94719.09;5101414;28;20283;-74
2023/04/08 01:59:42;;;;;;;12.75;6.45;;;;;;;5.01;73.80;94730.22;5102441;28;20697;-74
2023/04/08 02:02:12;;;;;;;11.20;6.22;;;;;;;4.90;74.33;94729.56;5098905;28;20259;-74
2023/04/08 02:04:39;;;;;;;13.10;7.53;;;;;;;4.76;73.97;94738.59;5100279;28;20642;-74
2023/04/08 02:07:06;;;;;;;11.40;6.95;;;;;;;4.80;74.23;94740.41;5112365;28;20248;-75
2023/04/08 02:09:33;;;;;;;11.95;6.97;;;;;;;4.62;75.04;94742.00;5104565;28;20202;-75
2023/04/08 02:12:00;;;;;;;11.18;6.03;;;;;;;4.63;75.31;94740.13;5108719;28;20567;-74
2023/04/08 02:14:27;;;;;;;10.88;6.63;;;;;;;4.53;75.75;94745.56;5098007;28;20221;-75
2023/04/08 02:17:00;;;;;;;10.13;6.35;;;;;;;4.64;75.41;94736.34;5105974;28;20230;-76
2023/04/08 02:19:32;;;;;;;15.80;8.10;;;;;;;4.74;76.08;94741.56;5100098;28;20270;-75
2023/04/08 02:22:05;;;;;;;12.13;6.75;;;;;;;4.84;75.42;94736.06;5094109;28;20197;-73
2023/04/08 02:24:33;;;;;;;15.13;7.97;;;;;;;4.82;75.45;94738.25;5112085;28;20233;-74
2023/04/08 02:27:02;;;;;;;10.30;5.80;;;;;;;4.74;75.05;94744.25;5102186;28;20254;-74
2023/04/08 02:29:32;;;;;;;18.63;8.05;;;;;;;4.77;75.44;94740.22;5099096;27;20205;-75
2023/04/08 02:32:02;;;;;;;15.98;8.13;;;;;;;4.80;75.72;94734.25;5103246;28;20259;-74
2023/04/08 02:34:30;;;;;;;13.27;7.68;;;;;;;4.80;75.95;94735.03;5100784;27;20348;-75
2023/04/08 02:36:58;;;;;;;19.42;7.53;;;;;;;4.72;77.11;94733.00;5104348;27;20201;-75
2023/04/08 02:39:31;;;;;;;11.90;6.88;;;;;;;4.83;77.37;94737.16;5107335;28;20222;-75
2023/04/08 02:41:57;;;;;;;15.63;7.93;;;;;;;4.89;76.98;94738.69;5105504;28;20204;-75
2023/04/08 02:44:25;;;;;;;15.30;8.35;;;;;;;5.10;76.92;94741.09;5091169;27;20289;-74
2023/04/08 02:46:51;;;;;;;19.52;8.20;;;;;;;5.07;76.29;94741.66;5097973;28;20202;-74
2023/04/08 02:49:18;;;;;;;18.25;9.57;;;;;;;4.97;76.23;94742.59;5089942;27;20256;-74
2023/04/08 02:51:46;;;;;;;13.23;7.97;;;;;;;5.04;76.25;94744.94;5098562;28;20345;-74
2023/04/08 02:54:13;;;;;;;12.82;7.15;;;;;;;5.18;75.78;94740.44;5101023;27;20266;-75
2023/04/08 02:56:40;;;;;;;12.30;7.13;;;;;;;5.25;75.90;94740.88;5101776;27;20226;-75
2023/04/08 02:59:07;;;;;;;9.60;6.75;;;;;;;5.06;76.17;94737.41;5080451;28;20281;-75
2023/04/08 03:01:33;;;;;;;13.00;8.25;;;;;;;5.19;76.24;94747.41;5106334;28;20250;-75
2023/04/08 03:04:00;;;;;;;18.83;7.88;;;;;;;5.05;76.57;94746.53;5100739;27;20225;-75
2023/04/08 03:06:27;;;;;;;13.40;7.90;;;;;;;5.15;75.65;94749.09;5101808;27;20208;-75
2023/04/08 03:08:55;;;;;;;15.88;8.68;;;;;;;5.14;75.74;94744.81;5107571;28;20202;-74
2023/04/08 03:11:22;;;;;;;18.38;9.80;;;;;;;5.29;75.76;94749.94;5107094;28;20197;-74
2023/04/08 03:13:49;;;;;;;19.02;9.73;;;;;;;5.48;75.26;94744.53;5099999;27;20216;-73
2023/04/08 03:16:15;;;;;;;14.27;8.65;;;;;;;5.46;75.24;94742.19;5100739;27;20234;-75
2023/04/08 03:18:42;;;;;;;21.38;9.80;;;;;;;5.39;75.69;94747.09;5107541;28;20300;-74
2023/04/08 03:21:09;;;;;;;18.48;10.07;;;;;;;5.23;76.72;94735.00;5107180;28;20593;-74
2023/04/08 03:23:36;;;;;;;21.90;10.02;;;;;;;5.30;75.78;94735.44;5080288;28;20217;-74
2023/04/08 03:26:04;;;;;;;20.33;9.40;;;;;;;5.44;75.50;94743.56;5080138;28;20289;-73
2023/04/08 03:28:31;;;;;;;17.10;9.25;;;;;;;5.38;75.97;94747.41;5101079;28;20209;-75
2023/04/08 03:30:59;;;;;;;23.63;10.77;;;;;;;5.34;76.12;94750.66;5109919;27;20194;-75
2023/04/08 03:33:26;;;;;;;21.08;10.43;;;;;;;5.35;76.43;94754.94;5101577;28;20310;-75
2023/04/08 03:35:54;;;;;;;20.73;11.15;;;;;;;5.44;76.15;94747.03;5097483;27;20203;-75
2023/04/08 03:38:21;;;;;;;17.33;9.77;;;;;;;5.39;77.13;94747.09;5102909;28;20210;-75
2023/04/08 03:40:47;;;;;;;19.60;9.70;;;;;;;5.46;76.29;94746.75;5103873;28;20262;-74
2023/04/08 03:43:16;;;;;;;18.30;9.23;;;;;;;5.41;76.54;94752.19;5097924;28;20225;-74
2023/04/08 03:45:42;;;;;;;18.80;10.27;;;;;;;5.42;76.38;94751.91;5096366;28;20214;-74
2023/04/08 03:48:09;;;;;;;21.13;11.48;;;;;;;5.32;76.98;94746.69;5101640;28;20548;-76
2023/04/08 03:50:36;;;;;;;22.30;12.05;;;;;;;5.17;76.58;94744.22;5104276;28;20201;-74
2023/04/08 03:53:03;;;;;;;18.77;8.43;;;;;;;5.19;74.56;94750.91;5099006;28;20213;-74
2023/04/08 03:55:30;;;;;;;16.90;8.95;;;;;;;5.06;75.47;94745.47;5096968;28;20271;-74
2023/04/08 03:57:56;;;;;;;15.10;7.55;;;;;;;4.83;74.75;94749.78;5101427;28;20263;-74
2023/04/08 04:00:25;;;;;;;12.82;7.47;;;;;;;4.86;74.69;94744.63;5104105;28;20205;-75
2023/04/08 04:02:51;;;;;;;9.73;6.10;;;;;;;4.92;74.27;94748.84;5099334;28;20254;-75
2023/04/08 04:05:18;;;;;;;9.00;5.38;;;;;;;4.78;74.70;94747.97;5096552;28;20282;-75
2023/04/08 04:07:45;;;;;;;9.85;6.10;;;;;;;4.68;75.25;94748.06;5101025;28;20198;-74
2023/04/08 04:10:12;;;;;;;10.18;5.80;;;;;;;4.71;74.39;94747.50;5103400;28;20626;-74
2023/04/08 04:12:38;;;;;;;11.85;5.93;;;;;;;4.88;73.96;94739.78;5099401;28;20672;-74
2023/04/08 04:15:06;;;;;;;11.25;6.20;;;;;;;4.90;74.08;94742.97;5089763;28;20615;-74
2023/04/08 04:17:34;;;;;;;9.90;6.38;;;;;;;4.71;73.93;94747.50;5080122;28;20347;-74
2023/04/08 04:20:04;;;;;;;12.95;7.38;;;;;;;4.79;73.52;94751.44;5103129;28;20202;-74
2023/04/08 04:22:30;;;;;;;8.98;5.45;;;;;;;4.94;73.46;94764.66;5101342;28;20261;-74
2023/04/08 04:24:57;;;;;;;11.25;6.45;;;;;;;4.82;74.16;94758.91;5095490;28;20233;-75
2023/04/08 04:27:24;;;;;;;9.38;6.28;;;;;;;4.73;73.92;94766.00;5098605;28;20202;-75
2023/04/08 04:29:51;;;;;;;8.48;5.07;;;;;;;4.60;73.87;94756.78;5104217;28;20190;-74
2023/04/08 04:32:18;;;;;;;10.43;6.43;;;;;;;4.68;75.05;94756.13;5097685;27;20202;-75
2023/04/08 04:34:46;;;;;;;9.80;6.32;;;;;;;4.72;74.08;94762.53;5103402;28;20194;-74
2023/04/08 04:37:13;;;;;;;13.90;6.25;;;;;;;4.72;73.39;94759.84;5076457;28;20214;-74
2023/04/08 04:39:39;;;;;;;9.85;6.22;;;;;;;4.69;73.75;94760.41;5101696;28;21148;-75
2023/04/08 04:42:06;;;;;;;16.90;6.05;;;;;;;4.66;73.90;94766.34;5077027;28;20207;-75
2023/04/08 04:44:33;;;;;;;14.75;7.00;;;;;;;4.59;74.49;94755.19;5101982;28;20226;-75
2023/04/08 04:47:00;;;;;;;12.68;7.75;;;;;;;4.67;74.81;94757.22;5088294;28;20206;-74
2023/04/08 04:49:26;;;;;;;16.40;8.43;;;;;;;4.80;74.28;94761.88;5102798;28;20199;-74
2023/04/08 04:51:54;;;;;;;13.50;7.10;;;;;;;4.99;73.93;94760.03;5101683;28;20719;-75
2023/04/08 04:54:21;;;;;;;18.40;7.40;;;;;;;5.12;74.35;94757.72;5076194;28;20226;-75
2023/04/08 04:56:48;;;;;;;14.30;7.65;;;;;;;5.18;75.59;94764.63;5102311;28;20221;-74
2023/04/08 04:59:15;;;;;;;16.77;8.30;;;;;;;5.09;75.58;94775.19;5083459;28;20260;-74
2023/04/08 05:01:41;;;;;;;12.88;7.47;;;;;;;5.18;74.93;94764.63;5094969;28;20201;-74
2023/04/08 05:04:08;;;;;;;16.73;8.10;;;;;;;5.37;74.83;94770.78;5095155;28;20279;-74
2023/04/08 05:06:35;;;;;;;19.80;9.05;;;;;;;5.37;74.87;94773.47;5108750;28;20711;-75
2023/04/08 05:09:03;;;;;;;16.08;8.73;;;;;;;5.60;74.78;94769.88;5094781;28;20193;-75
2023/04/08 05:11:30;;;;;;;18.90;8.93;;;;;;;5.69;74.33;94768.13;5095413;28;20264;-75
2023/04/08 05:13:56;;;;;;;20.98;8.95;;;;;;;5.68;74.47;94769.22;5082059;28;20255;-76
2023/04/08 05:16:23;;;;;;;15.88;9.07;;;;;;;5.69;73.89;94768.13;5095239;28;20238;-75
2023/04/08 05:18:50;;;;;;;32.53;11.20;;;;;;;5.77;73.88;94769.34;5109205;28;20194;-75
2023/04/08 05:21:17;;;;;;;21.55;9.80;;;;;;;5.99;72.99;94766.06;5095486;28;20216;-74
2023/04/08 05:23:43;;;;;;;18.52;9.98;;;;;;;6.32;71.88;94770.31;5100762;28;20326;-75
2023/04/08 05:26:11;;;;;;;14.52;8.35;;;;;;;6.37;71.00;94766.72;5095007;28;20670;-76
2023/04/08 05:28:38;;;;;;;18.92;10.05;;;;;;;6.40;70.78;94766.16;5084277;28;20622;-73
2023/04/08 05:31:05;;;;;;;24.40;10.15;;;;;;;6.57;70.25;94760.94;5088398;28;20243;-73
2023/04/08 05:33:32;;;;;;;19.08;10.20;;;;;;;6.79;70.09;94762.97;5083141;28;20195;-75
2023/04/08 05:35:58;;;;;;;26.85;14.85;;;;;;;6.89;69.06;94770.81;5085515;28;20275;-75
2023/04/08 05:38:25;;;;;;;17.00;9.55;;;;;;;7.26;68.59;94756.28;5084835;28;20201;-75
2023/04/08 05:40:55;;;;;;;16.98;9.10;;;;;;;7.69;66.91;94759.34;5087070;28;20202;-74
2023/04/08 05:43:23;;;;;;;20.77;9.73;;;;;;;7.78;66.56;94757.53;5084687;28;20205;-73
2023/04/08 05:45:50;;;;;;;22.95;10.10;;;;;;;8.10;65.25;94758.34;5087882;28;20263;-74
2023/04/08 05:48:17;;;;;;;19.90;9.27;;;;;;;7.84;65.52;94750.09;5084005;28;20819;-75
2023/04/08 05:50:44;;;;;;;16.92;9.43;;;;;;;7.62;65.35;94747.41;5087684;28;20661;-74
2023/04/08 05:53:11;;;;;;;17.92;9.23;;;;;;;7.60;65.23;94755.81;5087106;28;20608;-73
2023/04/08 05:55:37;;;;;;;26.30;15.15;;;;;;;7.14;66.23;94743.34;5085768;28;20704;-75
2023/04/08 05:58:04;;;;;;;27.60;15.25;;;;;;;7.28;66.88;94756.00;5085873;28;20268;-74
2023/04/08 06:00:32;;;;;;;16.55;9.48;;;;;;;7.18;67.44;94753.53;5086478;28;20190;-74
2023/04/08 06:02:59;;;;;;;16.17;8.65;;;;;;;6.95;67.45;94748.09;5087152;28;20190;-75
2023/04/08 06:05:26;;;;;;;16.48;7.85;;;;;;;7.06;67.70;94756.75;5082250;28;20226;-75
2023/04/08 06:07:53;;;;;;;16.95;9.43;;;;;;;6.71;68.89;94750.19;5086539;28;20190;-75
2023/04/08 06:10:20;;;;;;;22.25;9.27;;;;;;;6.97;68.33;94759.34;5084541;28;20563;-76
2023/04/08 06:12:46;;;;;;;16.80;7.78;;;;;;;7.26;67.72;94750.09;5086112;28;20186;-74
2023/04/08 06:15:13;;;;;;;22.50;12.82;;;;;;;7.29;66.67;94754.88;5085384;28;20226;-76
2023/04/08 06:17:41;;;;;;;12.32;7.43;;;;;;;7.32;65.39;94752.41;5086528;28;20611;-74
2023/04/08 06:20:09;;;;;;;17.85;7.95;;;;;;;7.64;65.05;94751.41;5086862;28;20209;-76
2023/04/08 06:22:36;;;;;;;15.50;7.15;;;;;;;7.87;64.66;94749.50;5079834;28;20198;-75
2023/04/08 06:25:03;;;;;;;13.95;8.23;;;;;;;8.07;63.80;94740.06;5085270;28;20244;-75
2023/04/08 06:27:30;;;;;;;16.27;8.40;;;;;;;8.01;62.97;94747.53;5086875;28;20216;-76
2023/04/08 06:29:58;;;;;;;13.15;7.13;;;;;;;8.11;62.87;94746.47;5085979;28;20198;-75
2023/04/08 06:32:25;;;;;;;22.42;12.43;;;;;;;7.55;64.12;94750.50;5084152;28;20279;-74
2023/04/08 06:34:53;;;;;;;13.10;8.43;;;;;;;7.56;64.92;94749.41;5087459;28;20691;-75
2023/04/08 06:37:20;;;;;;;13.88;7.43;;;;;;;7.47;64.98;94749.34;5088206;28;20203;-74
2023/04/08 06:39:47;;;;;;;12.48;7.32;;;;;;;7.35;65.58;94742.91;5083209;28;20243;-74
2023/04/08 06:42:14;;;;;;;16.70;8.05;;;;;;;7.57;66.17;94751.00;5077130;28;20272;-75
2023/04/08 06:44:41;;;;;;;15.68;7.05;;;;;;;7.54;65.31;94751.63;5080343;28;20336;-74
2023/04/08 06:47:07;;;;;;;12.55;7.00;;;;;;;7.40;66.25;94761.66;5093866;28;20202;-75
2023/04/08 06:49:35;;;;;;;9.13;6.35;;;;;;;7.20;66.34;94760.22;5080228;28;20210;-74
2023/04/08 06:52:07;;;;;;;8.38;5.28;;;;;;;7.07;67.36;94763.72;5079121;28;20199;-74
2023/04/08 06:54:33;;;;;;;15.35;8.13;;;;;;;7.45;67.54;94756.16;5081603;28;20252;-75
2023/04/08 06:57:00;;;;;;;15.57;8.02;;;;;;;7.63;66.23;94765.19;5077023;28;20218;-75
2023/04/08 06:59:27;;;;;;;11.23;6.40;;;;;;;7.78;66.14;94754.03;5079980;28;20195;-79
2023/04/08 07:01:53;;;;;;;15.07;6.03;;;;;;;7.75;66.35;94762.72;5079420;28;20195;-75
2023/04/08 07:04:20;;;;;;;17.00;8.18;;;;;;;7.89;66.33;94757.28;5085494;28;20230;-74
2023/04/08 07:06:47;;;;;;;13.13;7.32;;;;;;;7.96;65.85;94757.63;5076471;28;20188;-74
2023/04/08 07:09:15;;;;;;;17.00;7.40;;;;;;;7.72;66.35;94760.66;5080441;28;20199;-72
2023/04/08 07:11:42;;;;;;;5.53;3.88;;;;;;;7.37;67.80;94760.38;5085850;28;20190;-72
2023/04/08 07:14:08;;;;;;;15.20;7.40;;;;;;;7.15;68.27;94754.91;5094721;28;20205;-73
2023/04/08 07:16:35;;;;;;;13.50;7.35;;;;;;;7.47;68.23;94762.84;5097197;28;20222;-72
2023/04/08 07:19:02;;;;;;;19.30;7.40;;;;;;;7.44;68.21;94762.63;5098629;28;20288;-72
2023/04/08 07:21:30;;;;;;;7.22;4.20;;;;;;;7.51;68.11;94768.41;5081464;28;20199;-74
2023/04/08 07:23:56;;;;;;;8.52;5.47;;;;;;;7.50;67.39;94769.53;5079900;28;20203;-74
2023/04/08 07:26:24;;;;;;;12.45;6.50;;;;;;;7.81;66.81;94762.28;5098581;28;20225;-74
2023/04/08 07:28:51;;;;;;;10.45;5.97;;;;;;;8.22;65.92;94766.69;5084059;28;20255;-75
2023/04/08 07:31:18;;;;;;;10.52;5.40;;;;;;;8.19;65.57;94772.72;5093878;28;20194;-72
2023/04/08 07:33:45;;;;;;;15.75;8.05;;;;;;;8.48;64.70;94770.34;5094562;28;20206;-72
2023/04/08 07:36:14;;;;;;;9.82;5.78;;;;;;;8.46;64.45;94772.56;5103179;28;20203;-72
2023/04/08 07:38:41;;;;;;;12.23;7.35;;;;;;;8.98;63.74;94766.56;5081336;28;20666;-73
2023/04/08 07:41:07;;;;;;;8.80;5.53;;;;;;;9.20;62.67;94767.25;5095193;28;20197;-72
2023/04/08 07:43:36;;;;;;;8.00;4.38;;;;;;;9.19;62.75;94768.34;5107301;27;20205;-72
2023/04/08 07:46:03;;;;;;;13.18;6.55;;;;;;;9.17;63.24;94770.56;5092898;28;20229;-72
2023/04/08 07:48:30;;;;;;;10.50;4.82;;;;;;;9.68;61.76;94770.97;5083530;28;20187;-75
2023/04/08 07:50:57;;;;;;;13.30;8.10;;;;;;;9.56;62.65;94777.00;5078464;28;20199;-72
2023/04/08 07:53:25;;;;;;;18.92;12.73;;;;;;;10.22;61.56;94780.34;5085632;28;20268;-74
2023/04/08 07:55:52;;;;;;;7.85;4.90;;;;;;;10.24;59.81;94778.13;5081177;28;20225;-72
2023/04/08 07:58:19;;;;;;;13.63;6.20;;;;;;;9.86;60.80;94792.28;5098414;28;20255;-71
2023/04/08 08:00:47;;;;;;;4.50;2.72;;;;;;;9.97;59.78;94782.75;5101955;28;20740;-73
2023/04/08 08:03:13;;;;;;;8.77;4.85;;;;;;;9.91;60.78;94794.84;5088868;28;20204;-72
2023/04/08 08:05:40;;;;;;;12.75;6.72;;;;;;;9.82;60.54;94788.63;5088891;28;20238;-75
2023/04/08 08:08:07;;;;;;;12.23;6.68;;;;;;;9.79;59.92;94794.69;5088530;28;20228;-74
2023/04/08 08:10:34;;;;;;;12.18;6.00;;;;;;;10.33;59.61;94795.13;5092924;28;20194;-73
2023/04/08 08:13:01;;;;;;;12.93;7.68;;;;;;;10.47;60.07;94789.53;5086074;28;20203;-75
2023/04/08 08:15:27;;;;;;;15.68;6.93;;;;;;;11.00;58.21;94789.03;5089852;28;20319;-76
2023/04/08 08:17:55;;;;;;;11.27;6.57;;;;;;;10.77;57.78;94793.13;5087542;28;20614;-75
2023/04/08 08:20:22;;;;;;;17.67;11.35;;;;;;;11.43;56.86;94783.38;5089577;28;20194;-75
2023/04/08 08:22:49;;;;;;;11.15;6.95;;;;;;;11.43;56.47;94790.72;5090254;28;20202;-75
2023/04/08 08:25:16;;;;;;;14.77;8.38;;;;;;;11.21;56.76;94792.56;5088368;28;20252;-73
2023/04/08 08:27:44;;;;;;;11.90;7.32;;;;;;;11.16;56.54;94784.66;5089966;28;20285;-74
2023/04/08 08:30:11;;;;;;;11.38;6.65;;;;;;;10.95;56.89;94794.63;5093875;28;20210;-73
2023/04/08 08:32:38;;;;;;;9.77;6.90;;;;;;;10.77;57.77;94793.91;5090169;28;20206;-73
2023/04/08 08:35:07;;;;;;;13.98;8.43;;;;;;;11.00;57.57;94783.59;5093454;28;20609;-74
2023/04/08 08:37:33;;;;;;;9.75;6.90;;;;;;;11.56;55.30;94786.97;5096503;28;20580;-75
2023/04/08 08:40:00;;;;;;;15.88;10.65;;;;;;;11.06;55.65;94797.78;5097560;28;20564;-75
2023/04/08 08:42:27;;;;;;;16.27;11.02;;;;;;;12.24;53.72;94791.06;5095103;27;20206;-75
2023/04/08 08:44:54;;;;;;;13.68;7.10;;;;;;;12.80;52.02;94789.53;5098828;28;20230;-73
2023/04/08 08:47:21;;;;;;;12.43;7.18;;;;;;;12.94;51.77;94783.78;5089535;28;20232;-73
2023/04/08 08:49:48;;;;;;;7.20;4.47;;;;;;;12.07;54.45;94788.50;5100427;28;20214;-73
2023/04/08 08:52:18;;;;;;;20.38;11.45;;;;;;;11.20;56.52;94796.44;5077162;28;20576;-74
2023/04/08 08:54:45;;;;;;;19.98;12.50;;;;;;;11.22;57.26;94799.59;5095698;28;20800;-75
2023/04/08 08:57:18;;;;;;;19.23;12.23;;;;;;;10.86;58.63;94802.00;5077763;28;20251;-74
2023/04/08 08:59:46;;;;;;;21.00;12.73;;;;;;;10.09;61.27;94803.75;5102768;28;20196;-75
2023/04/08 09:02:25;;;;;;;16.50;9.35;;;;;;;10.29;60.90;94805.00;5094845;28;20206;-72
2023/04/08 09:04:57;;;;;;;19.67;8.98;;;;;;;10.15;61.34;94807.06;5096000;28;20229;-75
2023/04/08 09:07:26;;;;;;;15.98;9.63;;;;;;;9.95;62.19;94806.63;5090652;28;20194;-73
2023/04/08 09:09:54;;;;;;;12.82;6.20;;;;;;;10.56;61.00;94804.63;5088503;28;20703;-74
2023/04/08 09:12:21;;;;;;;21.45;14.23;;;;;;;11.00;60.08;94802.59;5101637;28;20665;-73
2023/04/08 09:14:48;;;;;;;23.98;14.68;;;;;;;10.60;60.82;94800.19;5101629;28;20202;-71
2023/04/08 09:17:15;;;;;;;21.58;13.23;;;;;;;11.17;59.83;94791.66;5087663;28;20222;-72
2023/04/08 09:20:08;;;;;;;22.52;14.27;;;;;;;11.50;58.64;94799.13;5102432;28;20201;-73
2023/04/08 09:22:55;;;;;;;20.83;13.85;;;;;;;11.74;57.73;94781.09;5099293;28;20205;-75
2023/04/08 09:25:26;;;;;;;24.52;14.43;;;;;;;11.77;58.26;94779.66;5086883;28;20240;-73
2023/04/08 09:27:53;;;;;;;20.70;11.55;;;;;;;11.26;57.81;94792.41;5091527;28;20202;-73
2023/04/08 09:30:22;;;;;;;21.67;12.15;;;;;;;11.06;58.18;94789.66;5084772;28;20202;-73
2023/04/08 09:32:50;;;;;;;16.52;11.02;;;;;;;11.13;57.75;94792.63;5086187;28;20198;-73
2023/04/08 09:35:18;;;;;;;15.40;10.68;;;;;;;11.56;56.67;94778.81;5086275;28;20198;-73
2023/04/08 09:37:47;;;;;;;13.80;9.30;;;;;;;11.75;55.91;94773.75;5087287;28;20247;-73
2023/04/08 09:40:15;;;;;;;13.35;9.25;;;;;;;12.54;53.18;94782.81;5087960;28;20263;-74
2023/04/08 09:42:45;;;;;;;15.43;9.40;;;;;;;13.36;51.38;94770.78;5090415;28;20197;-73
2023/04/08 09:45:13;;;;;;;16.38;10.43;;;;;;;13.34;52.08;94766.81;5089184;28;20222;-73
2023/04/08 09:47:52;;;;;;;16.52;9.88;;;;;;;11.79;54.27;94780.13;5083502;28;20290;-71
2023/04/08 09:50:35;;;;;;;16.40;10.50;;;;;;;11.61;56.81;94770.50;5079346;28;20199;-74
2023/04/08 09:53:11;;;;;;;19.40;12.18;;;;;;;11.38;57.39;94775.41;5085430;28;20214;-73
2023/04/08 09:55:39;;;;;;;19.73;11.80;;;;;;;11.23;58.55;94768.66;5085211;28;20226;-75
2023/04/08 09:58:11;;;;;;;20.63;12.93;;;;;;;10.79;59.48;94774.63;5087712;28;20205;-73
2023/04/08 10:00:45;;;;;;;16.42;11.35;;;;;;;10.53;60.04;94756.53;5090542;28;20576;-73
2023/04/08 10:03:22;;;;;;;20.40;12.25;;;;;;;11.12;58.68;94767.44;5092485;28;20233;-73
2023/04/08 10:05:49;;;;;;;14.70;9.18;;;;;;;11.22;54.90;94761.63;5081845;28;20285;-74
2023/04/08 10:08:18;;;;;;;15.98;10.27;;;;;;;11.57;55.08;94761.41;5080072;28;20225;-75
2023/04/08 10:10:45;;;;;;;24.33;11.52;;;;;;;11.97;56.04;94754.41;5100028;28;20239;-72
2023/04/08 10:13:12;;;;;;;20.15;12.80;;;;;;;11.37;57.26;94760.25;5074668;28;20237;-77
2023/04/08 10:15:42;;;;;;;17.27;10.50;;;;;;;11.15;58.27;94761.38;5068681;28;20277;-74
2023/04/08 10:18:31;;;;;;;19.95;11.50;;;;;;;10.66;60.01;94760.94;5086443;28;20245;-74
2023/04/08 10:20:58;;;;;;;14.45;9.32;;;;;;;10.47;59.88;94767.88;5075826;28;20334;-79
2023/04/08 10:23:54;;;;;;;18.85;11.68;;;;;;;10.80;59.33;94760.72;5082080;28;20198;-76
2023/04/08 10:26:32;;;;;;;21.83;13.02;;;;;;;11.12;58.87;94756.59;5076044;28;20241;-73
2023/04/08 10:29:33;;;;;;;18.67;12.40;;;;;;;11.10;59.19;94758.03;5095331;28;20312;-76
2023/04/08 10:32:01;;;;;;;17.90;11.38;;;;;;;11.08;58.35;94755.66;5075049;28;20295;-74
2023/04/08 10:34:31;;;;;;;17.95;12.00;;;;;;;10.82;59.78;94763.09;5088894;28;20199;-74
2023/04/08 10:37:01;;;;;;;20.75;12.23;;;;;;;11.14;60.67;94746.22;5091892;28;20206;-76
2023/04/08 10:39:30;;;;;;;20.58;12.50;;;;;;;11.21;61.79;94746.47;5091803;28;20202;-77
2023/04/08 10:41:57;;;;;;;18.75;11.48;;;;;;;11.06;59.62;94744.38;5084754;28;20727;-75
2023/04/08 10:44:26;;;;;;;20.75;11.20;;;;;;;11.16;60.17;94745.88;5086477;28;20608;-77
2023/04/08 10:46:54;;;;;;;22.50;12.30;;;;;;;11.20;60.02;94736.78;5085899;28;20225;-74
2023/04/08 10:49:21;;;;;;;16.63;10.40;;;;;;;11.54;58.18;94729.53;5094322;28;20199;-75
2023/04/08 10:51:49;;;;;;;15.70;10.38;;;;;;;11.65;56.48;94730.69;5084871;28;20198;-75
2023/04/08 10:54:17;;;;;;;14.63;9.10;;;;;;;12.60;54.28;94719.72;5103379;28;20619;-74
2023/04/08 10:56:49;;;;;;;17.17;10.63;;;;;;;13.06;52.33;94720.44;5103555;28;20197;-74
2023/04/08 10:59:19;;;;;;;16.58;10.48;;;;;;;13.07;52.83;94713.88;5083898;28;20201;-73
2023/04/08 11:01:46;;;;;;;22.48;11.73;;;;;;;12.81;53.88;94723.16;5097570;28;20206;-75
2023/04/08 11:04:14;;;;;;;17.63;11.35;;;;;;;12.40;54.19;94717.91;5103465;28;20206;-74
2023/04/08 11:06:43;;;;;;;20.58;11.63;;;;;;;12.02;55.14;94713.50;5104313;28;20337;-74
2023/04/08 11:09:11;;;;;;;14.98;9.45;;;;;;;11.59;56.70;94715.78;5081954;28;20203;-77
2023/04/08 11:11:38;;;;;;;18.20;11.15;;;;;;;11.75;56.26;94719.47;5072942;28;20645;-75
2023/04/08 11:14:06;;;;;;;15.75;10.00;;;;;;;11.92;55.62;94718.53;5102970;28;20729;-75
2023/04/08 11:16:34;;;;;;;17.90;10.38;;;;;;;11.88;54.88;94706.78;5104447;28;20312;-73
2023/04/08 11:19:03;;;;;;;17.73;10.20;;;;;;;11.90;54.59;94710.72;5099548;28;20233;-74
2023/04/08 11:21:31;;;;;;;14.70;9.40;;;;;;;12.31;53.56;94703.59;5092296;28;20199;-75
2023/04/08 11:23:58;;;;;;;17.10;10.50;;;;;;;12.84;51.80;94699.16;5079572;28;20195;-73
2023/04/08 11:26:26;;;;;;;12.85;9.13;;;;;;;12.72;51.51;94692.56;5093075;28;20592;-75
2023/04/08 11:28:54;;;;;;;15.60;9.02;;;;;;;12.21;52.94;94690.47;5100554;28;20206;-75
2023/04/08 11:31:23;;;;;;;15.68;7.78;;;;;;;12.02;53.46;94685.56;5104684;28;20202;-77
2023/04/08 11:33:53;;;;;;;15.85;9.20;;;;;;;12.29;53.29;94695.03;5101479;28;20250;-74